Huvudsida
METAR-TAF:

METAR-TAF

Flygplatser :

Luleå Airport

Luleå, Sverige

latitud: 65-33N, longitud: 022-08E, höjd: 17 m

Aktuellt väderrapport

Denna rapport gjordes för 22 minuter sedan, klockan 08:50 UTC
Vind 7 kt från nord
Temperatur -7°C
Fuktighet 86%
Tryck 1017 hPa
Sikt 10 km eller mer
Spridda moln på en höjd av 1100 ft
Mulet på en höjd av 2000 ft
lätt snö

METAR: ESPA 100850Z 01007KT 9999 -SN SCT011 OVC020 M07/M09 Q1017

Tid: 10:12 (09:12 UTC)

Väderprognos

Denna rapport gjordes för 42 minuter sedan, klockan 08:30 UTC
Prognos gäller från 10 kl. 09 UTC till 10 kl. 18 UTC
Vind 6 kt från nord
Sikt 10 km eller mer
Få moln på en höjd av 1000 ft
Mulet på en höjd av 2000 ft
lätt snö
Sannolikhet 40%
från 10 kl. 09 UTC till 10 kl. 13 UTC
Sikt: 4000 m
Brutna moln på en höjd av 900 ft
Temporärt
från 10 kl. 13 UTC till 10 kl. 18 UTC
Sikt: 2000 m
på en höjd av 1000 ft

TAF: ESPA 100830Z 1009/1018 01006KT 9999 -SN FEW010 OVC020 PROB40 1009/1013 4000 BKN009 TEMPO 1013/1018 2000 VV010

Aktuella väderrapporter och prognoser från 4000 flygplatser (METAR- och TAF-rapporter).

De tillgängliga stationerna syns som gula och röda prickar på kartan.

För musen över prickarna för att se namnen på stationerna.

Klicka sedan för att få väderrapporter och prognoser.

För att ändra kartan: Klicka på de gröna knapparna med ett svart kors på för att zooma in; den gröna knappen med ett streck på för att zooma ut; eller på de gröna pilarna för angränsande kartor.


METAR-TAF: